createdAt,value
2018-06-02T00:00:08.434Z,90.33
2018-06-02T00:02:36.572Z,89.76
2018-06-02T00:05:04.714Z,89.96
2018-06-02T00:07:32.846Z,90.09
2018-06-02T00:10:01.021Z,89.84
2018-06-02T00:12:29.154Z,89.64
2018-06-02T00:14:57.302Z,90.20
2018-06-02T00:17:25.428Z,90.05
2018-06-02T00:19:53.562Z,89.50
2018-06-02T00:22:21.709Z,89.55
2018-06-02T00:24:49.866Z,89.71
2018-06-02T00:27:17.994Z,90.58
2018-06-02T00:29:46.138Z,91.24
2018-06-02T00:32:14.293Z,91.02
2018-06-02T00:34:42.454Z,90.72
2018-06-02T00:37:10.590Z,90.25
2018-06-02T00:39:38.777Z,91.20
2018-06-02T00:42:06.924Z,90.71
2018-06-02T00:44:35.048Z,90.90
2018-06-02T00:47:03.183Z,90.67
2018-06-02T00:49:31.318Z,90.46
2018-06-02T00:51:59.450Z,90.39
2018-06-02T00:54:39.488Z,90.07
2018-06-02T00:57:07.640Z,89.59
2018-06-02T00:59:35.804Z,89.43
2018-06-02T01:02:03.943Z,89.37
2018-06-02T01:04:32.082Z,89.46
2018-06-02T01:07:00.237Z,89.34
2018-06-02T01:09:28.389Z,90.03
2018-06-02T01:11:56.617Z,89.64
2018-06-02T01:14:24.735Z,89.57
2018-06-02T01:16:52.863Z,89.56
2018-06-02T01:19:21.397Z,88.84
2018-06-02T01:21:49.526Z,89.20
2018-06-02T01:24:17.670Z,89.28
2018-06-02T01:26:46.115Z,89.46
2018-06-02T01:29:14.254Z,89.33
2018-06-02T01:31:42.410Z,89.61
2018-06-02T01:34:10.570Z,89.87
2018-06-02T01:36:38.700Z,89.49
2018-06-02T01:39:06.848Z,89.45
2018-06-02T01:41:34.996Z,89.47
2018-06-02T01:44:03.174Z,89.25
2018-06-02T01:46:31.328Z,89.99
2018-06-02T01:48:59.469Z,90.21
2018-06-02T01:51:27.600Z,89.71
2018-06-02T01:53:55.730Z,90.00
2018-06-02T01:56:23.896Z,89.98
2018-06-02T01:58:52.048Z,90.56
2018-06-02T02:01:20.186Z,90.30
2018-06-02T02:03:48.319Z,89.89
2018-06-02T02:06:16.817Z,89.96
2018-06-02T02:08:44.930Z,90.23
2018-06-02T02:11:13.061Z,90.38
2018-06-02T02:13:41.213Z,90.15
2018-06-02T02:16:09.369Z,89.92
2018-06-02T02:18:37.524Z,90.20
2018-06-02T02:21:05.681Z,90.76
2018-06-02T02:23:33.807Z,90.71
2018-06-02T02:26:02.171Z,90.18
2018-06-02T02:28:30.306Z,90.17
2018-06-02T02:30:58.453Z,90.13
2018-06-02T02:33:26.590Z,90.17
2018-06-02T02:35:54.722Z,90.58
2018-06-02T02:38:22.875Z,90.55
2018-06-02T02:40:51.029Z,90.84
2018-06-02T02:43:19.145Z,90.68
2018-06-02T02:45:47.298Z,90.71
2018-06-02T02:48:15.428Z,90.77
2018-06-02T02:50:43.587Z,91.32
2018-06-02T02:53:11.733Z,91.14
2018-06-02T02:55:39.877Z,91.17
2018-06-02T02:58:08.006Z,91.10
2018-06-02T03:00:36.138Z,90.99
2018-06-02T03:03:04.647Z,90.91
2018-06-02T03:05:32.807Z,91.05
2018-06-02T03:08:00.946Z,90.95
2018-06-02T03:10:29.451Z,90.55
2018-06-02T03:12:57.618Z,90.90
2018-06-02T03:15:26.129Z,91.27
2018-06-02T03:17:54.677Z,91.03
2018-06-02T03:20:22.847Z,91.06
2018-06-02T03:22:51.079Z,90.85
2018-06-02T03:25:19.229Z,90.78
2018-06-02T03:27:47.384Z,91.08
2018-06-02T03:30:15.518Z,91.53
2018-06-02T03:32:43.665Z,90.95
2018-06-02T03:35:11.790Z,91.11
2018-06-02T03:37:39.922Z,90.94
2018-06-02T03:40:08.116Z,91.39
2018-06-02T03:42:36.234Z,91.53
2018-06-02T03:45:04.365Z,91.92
2018-06-02T03:47:32.514Z,91.74
2018-06-02T03:50:00.677Z,91.64
2018-06-02T03:52:28.799Z,90.99
2018-06-02T03:54:56.932Z,91.18
2018-06-02T03:57:25.066Z,91.27
2018-06-02T03:59:53.196Z,91.12
2018-06-02T04:02:21.319Z,90.90
2018-06-02T04:04:50.264Z,90.94
2018-06-02T04:07:18.404Z,91.13
2018-06-02T04:09:46.538Z,90.46
2018-06-02T04:12:14.696Z,90.66
2018-06-02T04:14:42.817Z,90.49
2018-06-02T04:17:11.161Z,90.36
2018-06-02T04:19:39.361Z,90.21
2018-06-02T04:22:07.506Z,90.78
2018-06-02T04:24:35.646Z,90.82
2018-06-02T04:27:03.828Z,90.90
2018-06-02T04:29:31.977Z,91.49
2018-06-02T04:32:00.125Z,90.43
2018-06-02T04:34:28.257Z,90.55
2018-06-02T04:36:56.418Z,91.03
2018-06-02T04:39:24.560Z,91.17
2018-06-02T04:41:52.707Z,90.79
2018-06-02T04:44:20.860Z,90.92
2018-06-02T04:46:48.998Z,90.82
2018-06-02T04:49:17.147Z,90.52
2018-06-02T04:51:45.331Z,90.75
2018-06-02T04:54:13.460Z,91.01
2018-06-02T04:56:41.581Z,90.89
2018-06-02T04:59:09.712Z,90.52
2018-06-02T05:01:37.850Z,90.72
2018-06-02T05:04:06.009Z,90.10
2018-06-02T05:06:34.146Z,90.46
2018-06-02T05:09:02.301Z,90.57
2018-06-02T05:11:30.438Z,90.40
2018-06-02T05:13:58.561Z,90.48
2018-06-02T05:16:26.699Z,90.89
2018-06-02T05:18:54.816Z,90.96
2018-06-02T05:21:22.941Z,90.84
2018-06-02T05:23:51.101Z,90.40
2018-06-02T05:26:19.211Z,90.68
2018-06-02T05:28:47.373Z,90.20
2018-06-02T05:31:15.525Z,90.54
2018-06-02T05:33:43.677Z,90.40
2018-06-02T05:36:11.833Z,90.34
2018-06-02T05:38:39.990Z,90.27
2018-06-02T05:41:08.140Z,90.43
2018-06-02T05:43:36.286Z,90.62
2018-06-02T05:46:04.422Z,91.10
2018-06-02T05:48:32.591Z,90.67
2018-06-02T05:51:00.735Z,91.07
2018-06-02T05:53:28.882Z,91.14
2018-06-02T05:55:57.030Z,90.91
2018-06-02T05:58:25.165Z,91.10
2018-06-02T06:00:53.306Z,90.36
2018-06-02T06:03:21.461Z,90.11
2018-06-02T06:05:49.618Z,89.63
2018-06-02T06:08:17.773Z,90.12
2018-06-02T06:10:45.914Z,89.59
2018-06-02T06:13:14.059Z,89.66
2018-06-02T06:15:42.195Z,89.76
2018-06-02T06:18:10.342Z,89.69
2018-06-02T06:20:38.467Z,89.47
2018-06-02T06:23:06.597Z,89.25
2018-06-02T06:25:34.753Z,88.89
2018-06-02T06:28:02.876Z,89.06
2018-06-02T06:30:31.039Z,89.25
2018-06-02T06:32:59.194Z,88.77
2018-06-02T06:35:27.341Z,88.28
2018-06-02T06:37:55.468Z,88.60
2018-06-02T06:40:23.610Z,88.43
2018-06-02T06:42:51.740Z,88.48
2018-06-02T06:45:19.886Z,87.93
2018-06-02T06:47:48.020Z,87.95
2018-06-02T06:50:16.159Z,88.85
2018-06-02T06:52:44.310Z,88.90
2018-06-02T06:55:12.436Z,89.21
2018-06-02T06:57:40.612Z,89.06
2018-06-02T07:00:08.705Z,89.01
2018-06-02T07:02:36.836Z,89.37
2018-06-02T07:05:04.980Z,89.42
2018-06-02T07:07:33.130Z,89.29
2018-06-02T07:10:01.270Z,89.32
2018-06-02T07:12:29.402Z,89.21
2018-06-02T07:14:57.703Z,89.00
2018-06-02T07:17:25.981Z,88.39
2018-06-02T07:19:54.126Z,88.53
2018-06-02T07:22:22.247Z,87.85
2018-06-02T07:24:53.780Z,87.64
2018-06-02T07:27:21.926Z,86.72
2018-06-02T07:29:50.058Z,86.62
2018-06-02T07:32:18.205Z,86.97
2018-06-02T07:34:46.365Z,87.23
2018-06-02T07:37:14.485Z,86.95
2018-06-02T07:39:42.650Z,87.28
2018-06-02T07:42:10.786Z,86.80
2018-06-02T07:44:38.923Z,86.89
2018-06-02T07:47:07.081Z,86.64
2018-06-02T07:49:35.220Z,86.83
2018-06-02T07:52:03.384Z,87.25
2018-06-02T07:54:31.510Z,87.22
2018-06-02T07:56:59.654Z,87.11
2018-06-02T07:59:27.786Z,86.69
2018-06-02T08:01:55.936Z,87.23
2018-06-02T08:04:24.085Z,86.63
2018-06-02T08:06:53.174Z,86.69
2018-06-02T08:09:21.600Z,86.29
2018-06-02T08:11:49.726Z,86.43
2018-06-02T08:14:17.882Z,86.20
2018-06-02T08:16:46.025Z,86.11
2018-06-02T08:19:14.186Z,86.50
2018-06-02T08:21:42.349Z,86.34
2018-06-02T08:24:10.513Z,86.44
2018-06-02T08:26:38.743Z,86.09
2018-06-02T08:29:06.842Z,86.11
2018-06-02T08:31:34.960Z,85.98
2018-06-02T08:34:03.102Z,86.50
2018-06-02T08:36:31.241Z,86.43
2018-06-02T08:38:59.417Z,86.76
2018-06-02T08:41:27.506Z,86.02
2018-06-02T08:43:55.632Z,85.82
2018-06-02T08:46:23.776Z,84.88
2018-06-02T08:48:51.916Z,85.52
2018-06-02T08:51:20.085Z,84.93
2018-06-02T08:53:48.216Z,84.76
2018-06-02T08:56:16.667Z,84.04
2018-06-02T08:58:44.810Z,84.03
2018-06-02T09:01:12.969Z,83.15
2018-06-02T09:03:41.137Z,83.33
2018-06-02T09:06:09.270Z,83.25
2018-06-02T09:08:37.405Z,82.46
2018-06-02T09:11:05.617Z,82.71
2018-06-02T09:13:33.759Z,82.43
2018-06-02T09:16:02.155Z,82.82
2018-06-02T09:18:30.290Z,83.35
2018-06-02T09:20:58.434Z,82.22
2018-06-02T09:23:26.570Z,82.48
2018-06-02T09:25:54.714Z,82.45
2018-06-02T09:28:22.854Z,82.39
2018-06-02T09:30:50.972Z,82.46
2018-06-02T09:33:19.126Z,81.81
2018-06-02T09:35:47.256Z,82.15
2018-06-02T09:38:15.399Z,82.51
2018-06-02T09:40:43.558Z,82.43
2018-06-02T09:43:11.694Z,81.62
2018-06-02T09:45:39.833Z,81.38
2018-06-02T09:48:07.978Z,80.74
2018-06-02T09:50:39.125Z,81.26
2018-06-02T09:53:07.265Z,80.70
2018-06-02T09:55:35.402Z,81.49
2018-06-02T09:58:03.566Z,80.43
2018-06-02T10:00:36.086Z,80.22
2018-06-02T10:03:04.206Z,80.92
2018-06-02T10:05:32.381Z,80.67
2018-06-02T10:08:00.523Z,80.42
2018-06-02T10:10:28.693Z,80.52
2018-06-02T10:12:56.788Z,80.66
2018-06-02T10:15:24.917Z,79.75
2018-06-02T10:17:53.069Z,80.41
2018-06-02T10:20:21.281Z,78.61
2018-06-02T10:22:49.555Z,79.49
2018-06-02T10:25:17.688Z,78.78
2018-06-02T10:27:45.825Z,79.34
2018-06-02T10:30:14.005Z,79.31
2018-06-02T10:32:42.120Z,79.55
2018-06-02T10:35:10.259Z,78.16
2018-06-02T10:37:38.448Z,77.33
2018-06-02T10:40:06.571Z,77.50
2018-06-02T10:42:34.757Z,77.89
2018-06-02T10:45:02.887Z,78.27
2018-06-02T10:47:31.026Z,78.75
2018-06-02T10:49:59.158Z,79.07
2018-06-02T10:52:27.298Z,78.55
2018-06-02T10:54:55.432Z,78.83
2018-06-02T10:57:23.571Z,78.05
2018-06-02T10:59:51.712Z,77.77
2018-06-02T11:02:19.855Z,77.86
2018-06-02T11:04:47.971Z,76.99
2018-06-02T11:07:19.284Z,77.65
2018-06-02T11:09:47.449Z,76.89
2018-06-02T11:12:15.575Z,76.52
2018-06-02T11:14:43.740Z,77.03
2018-06-02T11:17:11.880Z,76.52
2018-06-02T11:19:40.040Z,76.88
2018-06-02T11:22:08.168Z,77.49
2018-06-02T11:24:36.297Z,77.01
2018-06-02T11:27:04.423Z,77.53
2018-06-02T11:29:32.545Z,77.40
2018-06-02T11:32:00.723Z,77.73
2018-06-02T11:34:28.835Z,77.72
2018-06-02T11:36:56.977Z,76.59
2018-06-02T11:39:25.130Z,76.97
2018-06-02T11:41:53.258Z,76.79
2018-06-02T11:44:21.527Z,76.62
2018-06-02T11:46:49.644Z,75.92
2018-06-02T11:49:17.812Z,76.12
2018-06-02T11:51:45.940Z,75.89
2018-06-02T11:54:14.066Z,76.43
2018-06-02T11:56:42.229Z,76.79
2018-06-02T11:59:10.355Z,77.18
2018-06-02T12:01:38.492Z,77.08
2018-06-02T12:04:06.647Z,77.43
2018-06-02T12:06:34.787Z,77.22
2018-06-02T12:09:02.930Z,76.62
2018-06-02T12:11:31.091Z,76.84
2018-06-02T12:13:59.232Z,76.22
2018-06-02T12:16:27.387Z,75.81
2018-06-02T12:18:55.540Z,76.56
2018-06-02T12:21:23.690Z,75.96
2018-06-02T12:23:51.828Z,75.53
2018-06-02T12:26:19.983Z,76.46
2018-06-02T12:28:48.111Z,74.90
2018-06-02T12:31:16.243Z,75.49
2018-06-02T12:33:44.494Z,74.28
2018-06-02T12:36:12.641Z,74.40
2018-06-02T12:38:40.770Z,74.93
2018-06-02T12:41:08.902Z,75.47
2018-06-02T12:43:37.036Z,75.69
2018-06-02T12:46:05.206Z,74.60
2018-06-02T12:48:33.668Z,74.85
2018-06-02T12:51:01.798Z,74.67
2018-06-02T12:53:29.935Z,75.78
2018-06-02T12:55:58.064Z,74.42
2018-06-02T12:58:26.216Z,74.39
2018-06-02T13:00:54.357Z,74.39
2018-06-02T13:03:22.486Z,73.75
2018-06-02T13:05:50.637Z,73.97
2018-06-02T13:08:18.775Z,74.53
2018-06-02T13:10:46.904Z,73.31
2018-06-02T13:13:15.014Z,73.33
2018-06-02T13:15:43.138Z,73.47
2018-06-02T13:18:11.278Z,73.60
2018-06-02T13:20:39.409Z,73.93
2018-06-02T13:23:07.550Z,73.18
2018-06-02T13:25:35.679Z,72.64
2018-06-02T13:28:03.802Z,71.25
2018-06-02T13:30:31.938Z,70.98
2018-06-02T13:33:00.053Z,71.46
2018-06-02T13:35:28.199Z,69.93
2018-06-02T13:37:56.348Z,68.50
2018-06-02T13:40:24.488Z,67.64
2018-06-02T13:42:52.604Z,68.06
2018-06-02T13:47:48.012Z,68.15
2018-06-02T13:50:16.149Z,67.50
2018-06-02T13:52:44.274Z,68.47
2018-06-02T13:55:12.469Z,68.17
2018-06-02T13:57:40.583Z,67.86
2018-06-02T14:00:08.931Z,69.03
2018-06-02T14:02:37.067Z,69.36
2018-06-02T14:05:05.191Z,68.34
2018-06-02T14:07:33.341Z,69.57
2018-06-02T14:10:01.489Z,70.31
2018-06-02T14:12:29.646Z,70.64
2018-06-02T14:14:57.761Z,70.80
2018-06-02T14:17:25.864Z,70.25
2018-06-02T14:19:53.991Z,70.81
2018-06-02T14:22:22.135Z,70.93
2018-06-02T14:24:50.356Z,71.38
2018-06-02T14:27:18.463Z,72.40
2018-06-02T14:29:46.595Z,73.16
2018-06-02T14:32:14.746Z,73.29
2018-06-02T14:34:42.871Z,74.51
2018-06-02T14:37:11.034Z,74.43
2018-06-02T14:39:39.144Z,74.06
2018-06-02T14:42:07.276Z,73.95
2018-06-02T14:44:35.414Z,73.95
2018-06-02T14:47:03.552Z,72.89
2018-06-02T14:49:31.675Z,72.99
2018-06-02T14:51:59.814Z,72.94
2018-06-02T14:54:27.941Z,73.17
2018-06-02T14:56:56.070Z,72.94
2018-06-02T14:59:24.193Z,72.60
2018-06-02T15:01:52.342Z,72.79
2018-06-02T15:04:20.462Z,72.36
2018-06-02T15:06:48.587Z,70.00
2018-06-02T15:09:16.731Z,70.60
2018-06-02T15:11:44.866Z,70.24
2018-06-02T15:14:13.007Z,71.97
2018-06-02T15:16:41.154Z,70.62
2018-06-02T15:19:09.302Z,71.50
2018-06-02T15:21:37.427Z,71.90
2018-06-02T15:24:05.532Z,73.48
2018-06-02T15:26:33.678Z,73.04
2018-06-02T15:29:01.806Z,73.11
2018-06-02T15:31:29.907Z,72.07
2018-06-02T15:33:58.066Z,71.95
2018-06-02T15:36:26.164Z,72.65
2018-06-02T15:38:54.306Z,72.35
2018-06-02T15:41:22.430Z,71.11
2018-06-02T15:43:50.558Z,70.94
2018-06-02T15:46:18.702Z,70.54
2018-06-02T15:48:46.824Z,69.69
2018-06-02T15:51:14.969Z,69.51
2018-06-02T15:53:43.098Z,69.49
2018-06-02T15:56:11.231Z,70.10
2018-06-02T15:58:39.350Z,70.14
2018-06-02T16:01:07.460Z,69.54
2018-06-02T16:03:35.617Z,69.94
2018-06-02T16:06:03.759Z,69.64
2018-06-02T16:08:31.919Z,70.10
2018-06-02T16:11:00.035Z,69.92
2018-06-02T16:13:28.144Z,70.41
2018-06-02T16:15:56.301Z,70.45
2018-06-02T16:18:24.404Z,70.75
2018-06-02T16:20:52.516Z,71.10
2018-06-02T16:23:20.654Z,71.04
2018-06-02T16:25:48.857Z,71.70
2018-06-02T16:28:16.962Z,71.09
2018-06-02T16:30:45.083Z,71.09
2018-06-02T16:33:13.214Z,71.52
2018-06-02T16:35:41.358Z,71.72
2018-06-02T16:38:09.507Z,71.58
2018-06-02T16:40:37.632Z,71.91
2018-06-02T16:43:05.751Z,71.85
2018-06-02T16:45:33.888Z,72.17
2018-06-02T16:48:02.016Z,71.75
2018-06-02T16:50:30.180Z,72.03
2018-06-02T16:52:58.545Z,71.97
2018-06-02T16:55:26.691Z,72.09
2018-06-02T16:57:54.785Z,71.81
2018-06-02T17:00:22.911Z,71.66
2018-06-02T17:02:51.038Z,71.13
2018-06-02T17:05:19.161Z,71.39
2018-06-02T17:07:47.317Z,70.71
2018-06-02T17:10:15.438Z,70.49
2018-06-02T17:12:43.572Z,71.12
2018-06-02T17:15:11.723Z,70.66
2018-06-02T17:17:39.860Z,70.32
2018-06-02T17:20:08.024Z,69.41
2018-06-02T17:22:36.148Z,69.46
2018-06-02T17:25:04.296Z,69.02
2018-06-02T17:27:35.834Z,69.20
2018-06-02T17:30:03.979Z,69.65
2018-06-02T17:32:32.122Z,69.90
2018-06-02T17:35:00.223Z,70.51
2018-06-02T17:37:28.894Z,70.43
2018-06-02T17:39:56.996Z,70.84
2018-06-02T17:42:25.140Z,70.81
2018-06-02T17:44:53.275Z,71.08
2018-06-02T17:47:21.403Z,71.53
2018-06-02T17:49:49.516Z,71.48
2018-06-02T17:52:17.664Z,71.78
2018-06-02T17:54:45.788Z,71.89
2018-06-02T17:57:13.894Z,72.10
2018-06-02T17:59:42.031Z,72.41
2018-06-02T18:02:10.139Z,72.33
2018-06-02T18:04:38.282Z,72.60
2018-06-02T18:07:06.419Z,72.64
2018-06-02T18:09:34.547Z,72.88
2018-06-02T18:12:02.668Z,73.14
2018-06-02T18:14:30.821Z,73.88
2018-06-02T18:16:58.957Z,74.28
2018-06-02T18:19:27.072Z,74.17
2018-06-02T18:21:55.224Z,75.20
2018-06-02T18:24:23.338Z,75.76
2018-06-02T18:26:51.486Z,75.83
2018-06-02T18:29:19.860Z,76.00
2018-06-02T18:31:47.983Z,76.52
2018-06-02T18:34:16.113Z,76.94
2018-06-02T18:36:44.231Z,76.86
2018-06-02T18:39:12.379Z,77.61
2018-06-02T18:41:40.500Z,77.27
2018-06-02T18:44:08.728Z,77.55
2018-06-02T18:46:36.870Z,78.05
2018-06-02T18:49:04.976Z,78.24
2018-06-02T18:51:33.230Z,78.04
2018-06-02T18:54:01.374Z,78.39
2018-06-02T18:56:29.483Z,78.28
2018-06-02T18:58:57.614Z,78.64
2018-06-02T19:01:26.298Z,78.71
2018-06-02T19:03:54.485Z,78.82
2018-06-02T19:06:22.700Z,79.15
2018-06-02T19:08:51.205Z,79.43
2018-06-02T19:11:19.335Z,79.09
2018-06-02T19:13:47.480Z,79.37
2018-06-02T19:16:15.640Z,79.83
2018-06-02T19:18:43.818Z,80.18
2018-06-02T19:21:11.892Z,80.27
2018-06-02T19:23:40.016Z,80.47
2018-06-02T19:26:08.151Z,80.63
2018-06-02T19:28:36.294Z,80.65
2018-06-02T19:31:04.430Z,81.09
2018-06-02T19:33:32.565Z,81.22
2018-06-02T19:36:00.713Z,81.37
2018-06-02T19:38:28.833Z,82.05
2018-06-02T19:40:56.997Z,82.48
2018-06-02T19:43:25.137Z,82.34
2018-06-02T19:45:53.281Z,82.73
2018-06-02T19:48:21.415Z,82.89
2018-06-02T19:50:49.556Z,82.88
2018-06-02T19:53:17.710Z,83.12
2018-06-02T19:55:45.846Z,83.38
2018-06-02T19:58:13.979Z,83.45
2018-06-02T20:00:42.096Z,83.56
2018-06-02T20:03:10.226Z,83.69
2018-06-02T20:05:38.536Z,83.73
2018-06-02T20:08:06.658Z,83.48
2018-06-02T20:10:34.903Z,83.59
2018-06-02T20:13:03.038Z,83.68
2018-06-02T20:15:31.182Z,84.00
2018-06-02T20:17:59.308Z,84.10
2018-06-02T20:20:27.420Z,84.12
2018-06-02T20:22:58.763Z,84.48
2018-06-02T20:25:26.916Z,84.54
2018-06-02T20:27:55.035Z,84.49
2018-06-02T20:30:23.173Z,84.33
2018-06-02T20:32:51.300Z,84.18
2018-06-02T20:35:19.430Z,84.64
2018-06-02T20:37:47.566Z,84.77
2018-06-02T20:40:15.690Z,84.62
2018-06-02T20:42:43.842Z,85.13
2018-06-02T20:45:11.976Z,85.12
2018-06-02T20:47:40.122Z,84.81
2018-06-02T20:50:08.232Z,84.97
2018-06-02T20:52:36.369Z,85.26
2018-06-02T20:55:04.514Z,85.36
2018-06-02T20:57:32.636Z,85.52
2018-06-02T21:00:00.780Z,85.47
2018-06-02T21:02:28.906Z,85.48
2018-06-02T21:04:57.016Z,85.59
2018-06-02T21:07:25.179Z,85.51
2018-06-02T21:09:53.317Z,85.58
2018-06-02T21:12:21.439Z,85.23
2018-06-02T21:14:49.597Z,85.50
2018-06-02T21:17:17.756Z,85.91
2018-06-02T21:19:45.886Z,86.05
2018-06-02T21:22:14.009Z,86.02
2018-06-02T21:24:42.138Z,86.02
2018-06-02T21:27:10.283Z,86.22
2018-06-02T21:29:38.404Z,86.12
2018-06-02T21:32:06.520Z,85.93
2018-06-02T21:34:34.666Z,86.65
2018-06-02T21:37:02.822Z,86.71
2018-06-02T21:39:30.971Z,86.19
2018-06-02T21:41:59.094Z,86.61
2018-06-02T21:44:27.244Z,86.67
2018-06-02T21:46:55.376Z,86.67
2018-06-02T21:49:23.545Z,86.51
2018-06-02T21:51:51.666Z,86.50
2018-06-02T21:54:19.790Z,86.48
2018-06-02T21:56:47.958Z,86.64
2018-06-02T21:59:16.096Z,86.92
2018-06-02T22:01:44.230Z,87.24
2018-06-02T22:04:12.348Z,87.20
2018-06-02T22:06:40.505Z,86.74
2018-06-02T22:09:08.643Z,86.85
2018-06-02T22:11:36.767Z,87.40
2018-06-02T22:14:04.898Z,86.98
2018-06-02T22:16:33.032Z,86.99
2018-06-02T22:19:01.185Z,86.90
2018-06-02T22:21:29.313Z,86.94
2018-06-02T22:23:57.457Z,86.84
2018-06-02T22:26:29.394Z,86.66
2018-06-02T22:28:57.572Z,86.71
2018-06-02T22:31:25.738Z,86.82
2018-06-02T22:33:53.874Z,87.16
2018-06-02T22:36:22.012Z,87.33
2018-06-02T22:38:50.180Z,85.55
2018-06-02T22:41:18.326Z,82.69
2018-06-02T22:43:46.529Z,79.92
2018-06-02T22:46:14.677Z,79.38
2018-06-02T22:48:42.789Z,79.42
2018-06-02T22:51:10.931Z,79.57
2018-06-02T22:53:39.048Z,80.56
2018-06-02T22:56:07.196Z,80.12
2018-06-02T22:58:35.338Z,79.83
2018-06-02T23:01:03.494Z,82.09
2018-06-02T23:03:31.713Z,82.83
2018-06-02T23:05:59.856Z,83.37
2018-06-02T23:08:27.995Z,82.85
2018-06-02T23:10:56.703Z,80.55
2018-06-02T23:13:24.852Z,79.70
2018-06-02T23:15:52.977Z,79.98
2018-06-02T23:18:21.111Z,80.15
2018-06-02T23:20:49.241Z,80.44
2018-06-02T23:23:17.401Z,80.67
2018-06-02T23:25:45.548Z,80.86
2018-06-02T23:28:13.705Z,80.77
2018-06-02T23:30:41.833Z,81.37
2018-06-02T23:33:09.956Z,81.69
2018-06-02T23:35:38.118Z,82.25
2018-06-02T23:38:06.247Z,82.43
2018-06-02T23:40:34.398Z,82.87
2018-06-02T23:43:02.605Z,82.81
2018-06-02T23:45:30.696Z,82.89
2018-06-02T23:47:58.852Z,82.79
2018-06-02T23:50:26.978Z,83.11
2018-06-02T23:52:55.117Z,83.22
2018-06-02T23:55:23.239Z,83.20
2018-06-02T23:57:51.370Z,83.40
